Time;durP1;ratioP1;P1;durP2;ratioP2;P2;SDS_P1;SDS_P2;PMS_P1;PMS_P2;Temp;Humidity;BMP_temperature;BMP_pressure;BME280_temperature;BME280_humidity;BME280_pressure;Samples;Min_cycle;Max_cycle;Signal;HPM_P1;HPM_P2
2022/01/28 00:02:59;;;;;;;;;19.33;19.00;;;;;6.58;90.42;103007.25;5119158;27;46313;-69
2022/01/28 00:05:24;;;;;;;;;19.33;18.67;;;;;6.49;90.90;103007.84;5119561;27;45749;-69
2022/01/28 00:07:51;;;;;;;;;15.33;14.00;;;;;6.49;90.45;103012.19;5119309;27;45388;-69
2022/01/28 00:10:19;;;;;;;;;20.33;19.00;;;;;6.55;90.63;103031.59;5119747;27;45367;-68
2022/01/28 00:15:45;;;;;;;;;24.00;20.33;;;;;6.47;90.57;103022.59;5119498;27;45163;-69
2022/01/28 00:39:32;;;;;;;;;26.25;20.00;;;;;6.42;91.27;103034.66;5119403;27;45380;-68
2022/01/28 00:41:58;;;;;;;;;17.67;17.67;;;;;6.43;91.47;103041.66;5119753;27;45387;-68
2022/01/28 00:44:23;;;;;;;;;17.33;17.33;;;;;6.43;90.76;103045.19;5119180;27;45445;-69
2022/01/28 00:46:49;;;;;;;;;20.00;19.00;;;;;6.35;89.99;103025.72;5118893;27;45335;-68
2022/01/28 00:49:14;;;;;;;;;18.33;14.33;;;;;6.07;90.14;102997.78;5119323;27;45497;-68
2022/01/28 00:51:40;;;;;;;;;16.67;13.33;;;;;6.36;91.01;103050.16;5119390;27;45419;-68
2022/01/28 00:54:05;;;;;;;;;19.33;15.33;;;;;6.32;91.33;103045.66;5119340;27;46697;-68
2022/01/28 00:56:30;;;;;;;;;21.00;19.33;;;;;6.35;91.13;103057.13;5118808;27;45410;-68
2022/01/28 00:58:56;;;;;;;;;16.33;15.00;;;;;6.32;90.56;103056.13;5118745;27;45886;-68
2022/01/28 01:01:21;;;;;;;;;15.67;14.00;;;;;6.37;90.55;103072.88;5119191;27;45446;-67
2022/01/28 01:03:47;;;;;;;;;18.00;16.00;;;;;6.32;90.46;103069.19;5118944;27;47416;-69
2022/01/28 01:06:12;;;;;;;;;17.00;14.67;;;;;6.26;91.31;103062.94;5118826;27;45494;-69
2022/01/28 01:08:38;;;;;;;;;18.67;13.33;;;;;6.27;90.94;103071.66;5118936;27;45402;-69
2022/01/28 01:11:04;;;;;;;;;20.33;16.00;;;;;6.25;90.80;103066.41;5119375;27;45324;-69
2022/01/28 01:13:29;;;;;;;;;17.67;13.00;;;;;6.28;90.87;103076.06;5117965;27;47563;-69
2022/01/28 01:15:59;;;;;;;;;15.00;14.33;;;;;6.26;89.94;103077.75;5118593;27;45396;-69
2022/01/28 01:18:41;;;;;;;;;12.67;12.67;;;;;6.22;90.50;103086.34;5118828;27;45429;-69
2022/01/28 01:21:12;;;;;;;;;14.33;12.67;;;;;6.16;90.65;103083.50;5117920;27;45213;-69
2022/01/28 01:23:40;;;;;;;;;14.67;14.00;;;;;6.15;91.05;103081.75;5118312;27;46900;-69
2022/01/28 01:26:11;;;;;;;;;14.67;12.67;;;;;6.15;91.77;103087.84;5118750;27;45278;-69
2022/01/28 01:28:39;;;;;;;;;14.50;13.50;;;;;6.16;90.96;103083.50;5118284;27;45463;-69
2022/01/28 01:31:07;;;;;;;;;18.25;16.50;;;;;6.18;91.33;103090.56;5118533;27;45316;-69
2022/01/28 01:33:46;;;;;;;;;16.67;13.33;;;;;6.15;91.21;103089.59;5118454;27;45469;-69
2022/01/28 01:36:11;;;;;;;;;25.33;15.00;;;;;6.16;91.10;103087.03;5118474;27;45541;-68
2022/01/28 01:38:39;;;;;;;;;16.33;13.33;;;;;6.12;91.28;103074.69;5118347;27;45724;-68
2022/01/28 01:41:09;;;;;;;;;21.67;21.00;;;;;6.13;91.12;103081.69;5118795;27;45424;-68
2022/01/28 01:43:57;;;;;;;;;23.00;18.67;;;;;6.10;91.47;103076.38;5118293;27;46090;-68
2022/01/28 01:54:25;;;;;;;;;19.00;15.00;;;;;6.09;89.95;103103.34;5118019;27;45829;-69
2022/01/28 01:56:52;;;;;;;;;18.67;14.00;;;;;5.99;89.79;103093.41;5118209;27;45326;-68
2022/01/28 01:59:17;;;;;;;;;15.00;13.00;;;;;5.87;90.60;103081.66;5118320;27;45432;-69
2022/01/28 02:01:43;;;;;;;;;18.00;15.67;;;;;5.93;90.45;103096.69;5118277;27;45222;-69
2022/01/28 02:04:09;;;;;;;;;14.75;13.75;;;;;5.90;90.19;103099.19;5118071;27;47205;-69
2022/01/28 02:06:36;;;;;;;;;16.33;14.67;;;;;5.66;90.44;103057.38;5116830;27;45341;-69
2022/01/28 02:09:01;;;;;;;;;13.00;13.00;;;;;5.75;89.35;103078.59;5118120;27;45336;-69
2022/01/28 02:11:27;;;;;;;;;23.67;14.67;;;;;5.73;89.68;103082.91;5118379;27;45315;-69
2022/01/28 02:13:53;;;;;;;;;14.33;13.33;;;;;5.68;89.65;103097.56;5117629;27;45335;-68
2022/01/28 02:16:19;;;;;;;;;13.00;13.00;;;;;5.40;90.32;103053.03;5118177;27;45442;-69
2022/01/28 02:18:45;;;;;;;;;19.33;16.67;;;;;5.67;90.60;103108.84;5118074;27;45392;-69
2022/01/28 02:21:13;;;;;;;;;20.00;17.00;;;;;5.65;90.80;103103.56;5117861;27;45479;-69
2022/01/28 02:23:40;;;;;;;;;18.00;18.00;;;;;5.61;90.87;103090.31;5116907;27;46469;-69
2022/01/28 02:26:07;;;;;;;;;23.00;18.00;;;;;5.59;90.72;103087.63;5117776;27;45901;-69
2022/01/28 02:28:37;;;;;;;;;22.33;19.00;;;;;5.57;90.69;103084.09;5117620;27;45340;-69
2022/01/28 02:31:04;;;;;;;;;25.00;17.33;;;;;5.64;90.53;103104.38;5099373;27;45435;-69
2022/01/28 02:33:30;;;;;;;;;22.33;15.67;;;;;5.61;90.45;103099.03;5120625;27;46322;-69
2022/01/28 02:36:05;;;;;;;;;22.00;14.67;;;;;5.46;90.90;103088.94;5120937;27;45319;-69
2022/01/28 02:38:30;;;;;;;;;25.33;17.67;;;;;5.58;91.02;103098.94;5121219;27;45271;-69
2022/01/28 02:40:58;;;;;;;;;19.33;16.00;;;;;5.49;90.99;103095.97;5121443;27;45152;-69
2022/01/28 02:46:08;;;;;;;;;13.00;13.00;;;;;5.53;91.24;103109.22;5121406;27;45261;-69
2022/01/28 02:48:36;;;;;;;;;20.67;15.67;;;;;5.49;90.99;103095.97;5121020;27;45308;-69
2022/01/28 02:51:09;;;;;;;;;19.00;15.33;;;;;5.40;91.01;103086.06;5121439;27;45335;-69
2022/01/28 02:53:56;;;;;;;;;15.00;12.33;;;;;5.50;91.58;103101.25;5120910;27;46537;-69
2022/01/28 02:58:49;;;;;;;;;21.00;19.00;;;;;5.40;91.16;103096.53;5121168;27;45343;-68
2022/01/28 03:01:18;;;;;;;;;24.00;21.33;;;;;5.47;91.46;103118.56;5121230;27;45500;-69
2022/01/28 03:03:46;;;;;;;;;20.67;18.67;;;;;5.43;91.14;103108.81;5120567;27;46127;-68
2022/01/28 03:06:13;;;;;;;;;16.67;15.67;;;;;5.36;91.07;103105.13;5101759;27;45430;-69
2022/01/28 03:08:44;;;;;;;;;20.00;20.00;;;;;5.43;91.39;103125.38;5120772;27;45370;-69
2022/01/28 03:16:29;;;;;;;;;21.67;15.67;;;;;5.32;90.74;103104.09;5120530;27;45214;-68
2022/01/28 03:18:59;;;;;;;;;22.67;22.67;;;;;5.27;90.97;103099.53;5120937;27;45383;-69
2022/01/28 03:21:40;;;;;;;;;28.33;20.33;;;;;5.35;90.99;103121.59;5120719;27;45376;-69
2022/01/28 03:24:07;;;;;;;;;23.33;19.00;;;;;5.26;91.15;103123.84;5119354;27;45619;-69
2022/01/28 03:26:33;;;;;;;;;23.67;20.00;;;;;5.32;90.89;103140.66;5119958;27;45323;-69
2022/01/28 03:28:59;;;;;;;;;23.33;21.33;;;;;5.25;90.87;103127.31;5120244;27;45472;-69
2022/01/28 03:31:24;;;;;;;;;28.33;23.67;;;;;5.22;91.11;103128.09;5120616;27;45920;-69
2022/01/28 03:33:49;;;;;;;;;30.00;24.00;;;;;5.16;90.95;103128.75;5120221;27;46726;-69
2022/01/28 03:36:15;;;;;;;;;28.00;23.33;;;;;5.23;90.45;103141.19;5120535;27;45325;-69
2022/01/28 03:38:42;;;;;;;;;31.67;27.67;;;;;5.19;90.18;103147.13;5120171;27;45491;-69
2022/01/28 03:41:13;;;;;;;;;21.00;19.00;;;;;5.17;91.41;103147.91;5120570;27;45229;-70
2022/01/28 03:43:41;;;;;;;;;30.67;25.00;;;;;5.16;90.76;103152.25;5118855;27;45423;-69
2022/01/28 03:46:07;;;;;;;;;23.00;21.33;;;;;5.16;90.80;103161.81;5120334;27;45294;-68
2022/01/28 03:48:32;;;;;;;;;27.00;19.67;;;;;5.16;90.70;103177.47;5120031;27;45418;-69
2022/01/28 03:50:58;;;;;;;;;32.00;25.67;;;;;5.08;91.16;103160.63;5120439;27;45292;-69
2022/01/28 03:53:23;;;;;;;;;25.00;21.00;;;;;5.12;90.78;103171.22;5119965;27;45642;-69
2022/01/28 03:55:51;;;;;;;;;36.33;29.00;;;;;5.01;90.74;103152.56;5120036;27;45299;-68
2022/01/28 03:58:16;;;;;;;;;27.67;21.67;;;;;4.96;90.95;103150.59;5120065;27;45486;-69
2022/01/28 04:00:42;;;;;;;;;29.33;23.67;;;;;5.09;91.88;103178.94;5120260;27;45333;-68
2022/01/28 04:03:24;;;;;;;;;25.00;20.33;;;;;5.04;92.11;103175.28;5119973;27;45987;-68
2022/01/28 04:13:54;;;;;;;;;24.00;20.00;;;;;5.03;92.11;103197.88;5118532;27;46498;-69
2022/01/28 04:18:45;;;;;;;;;16.00;13.33;;;;;5.04;91.99;103198.78;5119822;27;45292;-69
2022/01/28 04:21:10;;;;;;;;;20.00;19.00;;;;;4.99;92.90;103188.13;5119815;27;45441;-69
2022/01/28 04:23:36;;;;;;;;;29.00;24.00;;;;;5.06;92.37;103210.16;5119411;27;46122;-68
2022/01/28 04:26:01;;;;;;;;;25.33;20.67;;;;;4.95;92.49;103191.47;5101502;27;45416;-68
2022/01/28 04:28:26;;;;;;;;;24.33;18.67;;;;;4.98;92.37;103193.28;5119007;27;45477;-68
2022/01/28 04:30:52;;;;;;;;;21.33;17.00;;;;;5.05;92.82;103206.69;5120073;27;45440;-68
2022/01/28 04:33:17;;;;;;;;;20.33;18.67;;;;;5.06;92.49;103207.56;5118617;27;46419;-68
2022/01/28 04:35:45;;;;;;;;;23.33;20.33;;;;;5.06;92.53;103208.44;5119499;27;45391;-68
2022/01/28 04:40:52;;;;;;;;;23.00;21.00;;;;;5.08;92.45;103211.09;5119633;27;45247;-68
2022/01/28 04:43:25;;;;;;;;;24.33;17.33;;;;;5.05;92.19;103205.75;5118961;27;45478;-69
2022/01/28 04:53:52;;;;;;;;;23.33;18.33;;;;;5.12;92.83;103233.03;5055366;28;45436;-69
2022/01/28 05:02:20;;;;;;;;;23.67;22.00;;;;;5.00;91.78;103222.97;5054983;28;45364;-69
2022/01/28 05:04:27;;;;;;;;;26.33;21.33;;;;;5.02;92.61;103222.19;5049728;28;45565;-69
2022/01/28 05:28:28;;;;;;;;;16.00;11.00;;;;;4.90;92.35;103215.59;5109188;27;45305;-69
2022/01/28 05:30:53;;;;;;;;;21.00;20.33;;;;;4.87;92.40;103217.25;5118640;27;45212;-69
2022/01/28 05:33:18;;;;;;;;;21.67;18.67;;;;;4.71;92.43;103184.41;5118963;27;45367;-69
2022/01/28 05:35:44;;;;;;;;;29.00;20.33;;;;;4.92;92.73;103227.88;5118551;27;46906;-69
2022/01/28 05:38:09;;;;;;;;;22.33;17.67;;;;;4.92;92.38;103242.66;5118669;27;45245;-68
2022/01/28 05:40:35;;;;;;;;;22.67;18.33;;;;;4.91;93.23;103243.47;5118454;27;45317;-68
2022/01/28 05:43:00;;;;;;;;;22.33;17.00;;;;;4.88;93.22;103237.31;5118452;27;45400;-68
2022/01/28 05:45:25;;;;;;;;;24.67;22.67;;;;;4.83;93.39;103230.13;5117998;27;45496;-67
2022/01/28 05:47:51;;;;;;;;;23.00;18.00;;;;;4.97;92.77;103249.84;5117990;27;45477;-68
2022/01/28 05:50:16;;;;;;;;;26.67;20.33;;;;;4.97;92.75;103248.97;5118665;27;45616;-67
2022/01/28 05:52:42;;;;;;;;;29.00;24.67;;;;;4.88;92.57;103242.53;5118621;27;45496;-67
2022/01/28 05:55:08;;;;;;;;;27.00;26.00;;;;;4.93;92.40;103254.88;5117954;27;45334;-67
2022/01/28 05:57:33;;;;;;;;;21.33;17.67;;;;;4.91;92.24;103257.44;5118293;27;45454;-68
2022/01/28 05:59:58;;;;;;;;;23.00;19.67;;;;;4.84;93.32;103251.06;5117605;27;45857;-67
2022/01/28 06:02:24;;;;;;;;;25.00;21.00;;;;;4.84;93.44;103244.97;5118237;27;45437;-67
2022/01/28 06:04:49;;;;;;;;;19.67;17.67;;;;;4.82;93.04;103236.16;5118244;27;46495;-68
2022/01/28 06:07:14;;;;;;;;;24.33;18.67;;;;;4.78;92.51;103231.63;5118971;27;45484;-68
2022/01/28 06:09:40;;;;;;;;;21.67;19.00;;;;;4.88;92.48;103252.97;5121444;27;45345;-67
2022/01/28 06:12:06;;;;;;;;;15.33;14.00;;;;;4.85;92.61;103246.72;5122016;27;45345;-67
2022/01/28 06:14:31;;;;;;;;;23.33;19.00;;;;;4.82;91.70;103250.13;5121523;27;46446;-68
2022/01/28 06:16:57;;;;;;;;;56.33;42.67;;;;;4.86;92.33;103257.22;5121672;27;45154;-68
2022/01/28 06:19:22;;;;;;;;;23.33;18.33;;;;;4.80;92.00;103251.75;5121132;27;45211;-68
2022/01/28 06:21:47;;;;;;;;;28.67;27.00;;;;;4.77;92.47;103246.41;5121669;27;45500;-68
2022/01/28 06:24:13;;;;;;;;;33.67;26.67;;;;;4.77;91.89;103256.84;5121279;27;45342;-68
2022/01/28 06:26:40;;;;;;;;;28.00;28.00;;;;;4.76;91.95;103268.09;5121795;27;45423;-68
2022/01/28 06:29:05;;;;;;;;;30.67;21.67;;;;;4.69;92.03;103256.53;5121366;27;45422;-68
2022/01/28 06:31:31;;;;;;;;;34.67;30.67;;;;;4.74;92.11;103251.50;5121097;27;45469;-68
2022/01/28 06:33:56;;;;;;;;;36.33;32.33;;;;;4.65;91.52;103248.53;5121215;27;46091;-68
2022/01/28 06:36:21;;;;;;;;;24.67;20.67;;;;;4.66;91.50;103259.03;5121197;27;45302;-68
2022/01/28 06:38:48;;;;;;;;;25.33;22.67;;;;;4.47;91.27;103227.75;5120651;27;45703;-68
2022/01/28 06:41:13;;;;;;;;;18.33;16.33;;;;;4.60;91.67;103263.06;5120278;27;45649;-68
2022/01/28 06:43:39;;;;;;;;;47.33;36.33;;;;;4.62;91.91;103272.75;5121210;27;46425;-68
2022/01/28 06:46:05;;;;;;;;;28.33;24.00;;;;;4.62;91.98;103271.84;5121150;27;45361;-68
2022/01/28 06:48:30;;;;;;;;;25.33;21.67;;;;;4.60;92.16;103271.78;5121136;27;45279;-67
2022/01/28 06:50:55;;;;;;;;;18.00;16.33;;;;;4.52;91.07;103261.03;5121292;27;45544;-66
2022/01/28 06:53:21;;;;;;;;;28.33;20.33;;;;;4.55;91.01;103272.44;5120805;27;45250;-67
2022/01/28 06:55:46;;;;;;;;;21.00;18.00;;;;;4.53;91.77;103265.44;5120918;27;45372;-67
2022/01/28 06:58:11;;;;;;;;;26.33;24.67;;;;;4.52;91.45;103271.47;5119332;27;45891;-67
2022/01/28 07:00:37;;;;;;;;;24.00;20.00;;;;;4.46;91.57;103268.59;5119569;27;45606;-67
2022/01/28 07:03:11;;;;;;;;;25.33;23.67;;;;;4.52;91.74;103286.25;5119733;27;45435;-67
2022/01/28 07:05:37;;;;;;;;;23.00;17.33;;;;;4.54;92.09;103284.56;5120778;27;45344;-67
2022/01/28 07:08:04;;;;;;;;;24.33;18.33;;;;;4.52;91.92;103287.13;5120251;27;45514;-66
2022/01/28 07:10:30;;;;;;;;;35.00;21.67;;;;;4.49;92.34;103286.13;5119339;27;45748;-67
2022/01/28 07:12:55;;;;;;;;;30.00;26.67;;;;;4.52;91.70;103288.84;5119331;27;46526;-67
2022/01/28 07:15:24;;;;;;;;;25.67;23.67;;;;;4.48;91.25;103289.53;5120574;27;45406;-67
2022/01/28 07:17:54;;;;;;;;;35.33;27.00;;;;;4.45;91.52;103290.28;5120432;27;45430;-67
2022/01/28 07:20:19;;;;;;;;;27.67;22.00;;;;;4.45;91.32;103294.63;5119652;27;45565;-68
2022/01/28 07:22:45;;;;;;;;;22.33;21.67;;;;;4.50;91.41;103316.56;5120286;27;46371;-67
2022/01/28 07:25:11;;;;;;;;;31.67;25.67;;;;;4.39;92.46;103294.34;5120236;27;45356;-68
2022/01/28 07:27:36;;;;;;;;;35.33;26.00;;;;;4.37;92.24;103291.66;5120334;27;45398;-68
2022/01/28 07:30:03;;;;;;;;;37.00;30.67;;;;;4.51;91.78;103307.94;5120358;27;45347;-66
2022/01/28 07:32:28;;;;;;;;;65.33;54.33;;;;;4.23;92.64;103279.75;5119604;27;45518;-68
2022/01/28 07:34:54;;;;;;;;;47.67;40.33;;;;;4.50;92.27;103330.53;5120258;27;45405;-67
2022/01/28 07:37:20;;;;;;;;;33.67;29.33;;;;;4.53;92.28;103343.69;5120255;27;45632;-67
2022/01/28 07:39:45;;;;;;;;;31.67;24.00;;;;;4.50;91.93;103337.44;5120164;27;45274;-68
2022/01/28 07:42:11;;;;;;;;;35.33;30.67;;;;;4.55;92.18;103355.94;5119945;27;47451;-68
2022/01/28 07:44:37;;;;;;;;;34.67;26.67;;;;;4.53;91.40;103346.31;5119790;27;45372;-68
2022/01/28 07:47:03;;;;;;;;;23.67;22.00;;;;;4.41;92.29;103330.09;5120192;27;45246;-68
2022/01/28 07:49:28;;;;;;;;;33.67;26.00;;;;;4.55;91.59;103346.38;5120068;27;45275;-68
2022/01/28 07:51:54;;;;;;;;;46.00;29.67;;;;;4.65;91.39;103358.13;5119648;27;45441;-74
2022/01/28 07:54:19;;;;;;;;;35.00;28.00;;;;;4.57;91.14;103354.28;5119269;27;45262;-72
2022/01/28 07:56:47;;;;;;;;;36.00;27.67;;;;;4.62;91.71;103355.34;5119408;27;45226;-72
2022/01/28 07:59:13;;;;;;;;;42.00;38.67;;;;;4.67;91.53;103359.94;5120118;27;45374;-71
2022/01/28 08:01:38;;;;;;;;;35.67;30.67;;;;;4.75;91.54;103362.00;5118993;27;46051;-71
2022/01/28 08:04:03;;;;;;;;;28.67;23.00;;;;;4.83;90.46;103363.25;5119438;27;45287;-71
2022/01/28 08:06:30;;;;;;;;;38.00;36.67;;;;;4.84;90.86;103376.34;5118884;27;45320;-72
2022/01/28 08:08:58;;;;;;;;;33.33;28.67;;;;;4.76;89.95;103353.34;5119629;27;45334;-67
2022/01/28 08:11:23;;;;;;;;;49.67;43.00;;;;;4.84;91.20;103358.09;5119638;27;46977;-67
2022/01/28 08:13:49;;;;;;;;;33.33;28.33;;;;;4.95;91.15;103369.00;5119309;27;45475;-67
2022/01/28 08:16:14;;;;;;;;;39.00;33.33;;;;;4.95;91.16;103361.19;5118802;27;45468;-67
2022/01/28 08:18:39;;;;;;;;;35.67;29.33;;;;;5.09;90.87;103359.13;5120012;27;45224;-67
2022/01/28 08:21:05;;;;;;;;;40.00;30.67;;;;;5.22;90.39;103364.03;5119145;27;46194;-67
2022/01/28 08:23:31;;;;;;;;;35.00;30.33;;;;;5.43;89.92;103350.06;5119470;27;45389;-67
2022/01/28 08:25:56;;;;;;;;;47.00;35.67;;;;;5.96;88.06;103376.56;5119348;27;45500;-67
2022/01/28 08:28:22;;;;;;;;;25.33;24.00;;;;;6.43;86.01;103366.16;5119421;27;45314;-67
2022/01/28 08:30:47;;;;;;;;;28.00;26.00;;;;;6.73;84.70;103363.75;5118471;27;46130;-67
2022/01/28 08:33:12;;;;;;;;;33.33;28.00;;;;;7.27;81.82;103359.47;5119345;27;45335;-67
2022/01/28 08:35:39;;;;;;;;;27.00;24.33;;;;;7.28;80.82;103349.03;5118504;27;45432;-67
2022/01/28 08:38:14;;;;;;;;;31.33;27.00;;;;;7.33;80.69;103364.91;5119300;27;45391;-67
2022/01/28 08:40:40;;;;;;;;;32.33;22.67;;;;;7.16;81.17;103372.25;5118949;27;47007;-67
2022/01/28 08:43:05;;;;;;;;;29.67;21.00;;;;;7.05;81.81;103357.88;5118530;27;45450;-67
2022/01/28 08:45:31;;;;;;;;;33.67;24.67;;;;;7.13;82.20;103364.25;5118283;27;45502;-67
2022/01/28 08:47:56;;;;;;;;;27.00;25.00;;;;;7.45;79.65;103375.81;5119281;27;45732;-67
2022/01/28 08:50:22;;;;;;;;;35.33;30.67;;;;;7.22;80.45;103369.81;5119151;27;45579;-67
2022/01/28 08:52:47;;;;;;;;;28.00;26.67;;;;;7.24;80.80;103377.72;5118947;27;45319;-67
2022/01/28 08:55:14;;;;;;;;;33.67;27.00;;;;;7.18;79.75;103377.53;5118452;27;45438;-67
2022/01/28 08:57:43;;;;;;;;;31.33;27.00;;;;;7.22;80.53;103376.75;5117168;27;45915;-67
2022/01/28 09:00:13;;;;;;;;;23.00;19.00;;;;;7.24;80.38;103382.97;5118135;27;46245;-69
2022/01/28 09:02:41;;;;;;;;;35.67;30.33;;;;;7.27;80.29;103385.69;5118587;27;45581;-69
2022/01/28 09:05:07;;;;;;;;;28.33;23.00;;;;;7.20;81.35;103387.19;5118870;27;45453;-69
2022/01/28 09:07:32;;;;;;;;;42.00;31.00;;;;;7.05;82.00;103381.44;5118526;27;45304;-68
2022/01/28 09:10:04;;;;;;;;;30.33;26.00;;;;;7.09;81.62;103383.34;5118481;27;46132;-68
2022/01/28 09:12:39;;;;;;;;;31.00;25.33;;;;;7.26;81.53;103378.66;5103058;27;45287;-68
2022/01/28 09:15:06;;;;;;;;;54.67;41.33;;;;;7.40;80.49;103379.13;5118553;27;45302;-68
2022/01/28 09:17:32;;;;;;;;;33.00;26.67;;;;;7.48;80.00;103373.28;5118862;27;45347;-68
2022/01/28 09:19:58;;;;;;;;;29.33;25.00;;;;;7.64;79.46;103363.31;5118285;27;46331;-68
2022/01/28 09:22:24;;;;;;;;;28.00;28.00;;;;;7.70;79.68;103359.97;5118761;27;45457;-68
2022/01/28 09:24:51;;;;;;;;;33.67;31.33;;;;;7.95;78.71;103364.25;5118158;27;45355;-68
2022/01/28 09:27:17;;;;;;;;;33.33;29.00;;;;;8.01;77.59;103370.56;5118975;27;45518;-68
2022/01/28 09:29:43;;;;;;;;;34.33;30.67;;;;;8.18;76.90;103359.72;5118462;27;46052;-68
2022/01/28 09:32:08;;;;;;;;;36.00;30.67;;;;;8.39;76.03;103363.78;5118236;27;45640;-68
2022/01/28 09:34:34;;;;;;;;;32.67;24.33;;;;;8.34;75.63;103366.28;5118253;27;45405;-68
2022/01/28 09:36:59;;;;;;;;;29.33;26.00;;;;;8.22;76.82;103365.91;5100628;27;45514;-68
2022/01/28 09:39:25;;;;;;;;;30.67;24.33;;;;;8.47;76.25;103375.44;5118425;27;47224;-68
2022/01/28 09:41:52;;;;;;;;;33.33;29.67;;;;;8.46;75.33;103386.78;5098693;27;45224;-68
2022/01/28 09:44:19;;;;;;;;;27.00;26.33;;;;;8.33;76.42;103391.63;5100062;27;45479;-68
2022/01/28 09:46:45;;;;;;;;;35.00;32.33;;;;;8.21;78.09;103380.78;5118152;27;45428;-68
2022/01/28 09:49:13;;;;;;;;;38.00;28.00;;;;;8.59;77.78;103390.66;5117675;27;45572;-68
2022/01/28 09:51:39;;;;;;;;;28.00;24.67;;;;;9.18;76.34;103383.50;5118124;27;45408;-68
2022/01/28 09:54:04;;;;;;;;;36.00;27.33;;;;;9.22;74.62;103350.28;5118509;27;45292;-67
2022/01/28 09:56:30;;;;;;;;;42.33;34.67;;;;;9.48;74.68;103390.34;5118557;27;45288;-68
2022/01/28 09:58:56;;;;;;;;;42.33;35.67;;;;;9.38;73.45;103381.38;5118015;27;45575;-68
2022/01/28 10:01:21;;;;;;;;;36.33;30.00;;;;;9.46;73.78;103391.19;5116942;27;45493;-68
2022/01/28 10:04:07;;;;;;;;;35.00;31.00;;;;;9.83;74.06;103389.44;5117557;27;45488;-67
2022/01/28 10:06:34;;;;;;;;;29.00;27.00;;;;;10.66;71.40;103372.81;5097992;27;45561;-67
2022/01/28 10:09:06;;;;;;;;;30.00;24.67;;;;;11.91;66.18;103366.94;5105671;27;47257;-67
2022/01/28 10:11:32;;;;;;;;;36.00;28.67;;;;;12.77;64.69;103379.47;5117210;27;45426;-67
2022/01/28 10:14:08;;;;;;;;;40.00;33.33;;;;;12.83;64.32;103361.03;5118016;27;45488;-64
2022/01/28 10:16:33;;;;;;;;;31.33;31.33;;;;;12.63;62.70;103374.91;5118073;27;45622;-69
2022/01/28 10:19:04;;;;;;;;;40.33;34.67;;;;;12.32;63.13;103369.28;5117297;27;45927;-69
2022/01/28 10:21:44;;;;;;;;;66.67;48.00;;;;;11.74;65.05;103353.50;5117671;27;45454;-69
2022/01/28 10:24:17;;;;;;;;;45.33;32.33;;;;;11.26;64.32;103371.22;5116494;27;45420;-69
2022/01/28 10:26:45;;;;;;;;;39.33;28.67;;;;;10.99;66.47;103387.44;5117526;27;45424;-69
2022/01/28 10:29:18;;;;;;;;;42.00;33.67;;;;;10.53;67.66;103363.75;5117187;27;45449;-69
2022/01/28 10:31:53;;;;;;;;;37.33;32.00;;;;;10.41;68.63;103392.47;5117257;27;45393;-69
2022/01/28 10:34:23;;;;;;;;;36.00;31.33;;;;;10.10;69.85;103382.13;5117299;27;45546;-69
2022/01/28 10:36:50;;;;;;;;;38.67;32.00;;;;;9.94;70.31;103387.94;5117655;27;45217;-69
2022/01/28 10:39:21;;;;;;;;;38.00;33.00;;;;;9.83;71.63;103379.81;5117307;27;47486;-69
2022/01/28 10:41:50;;;;;;;;;36.67;30.00;;;;;9.93;72.61;103388.78;5117008;27;45279;-69
2022/01/28 10:44:16;;;;;;;;;49.67;38.00;;;;;10.01;72.77;103384.59;5117238;27;45414;-69
2022/01/28 10:46:49;;;;;;;;;40.67;29.67;;;;;9.97;71.61;103376.59;5117516;27;45427;-69
2022/01/28 10:49:14;;;;;;;;;51.00;39.00;;;;;10.01;71.72;103386.34;5117400;27;46395;-69
2022/01/28 10:51:42;;;;;;;;;39.67;33.00;;;;;10.04;72.47;103392.53;5116359;27;45396;-69
2022/01/28 10:54:10;;;;;;;;;36.67;31.00;;;;;10.03;72.56;103376.72;5120087;27;45303;-70
2022/01/28 10:57:08;;;;;;;;;37.67;29.00;;;;;10.04;71.95;103379.38;5121285;27;46222;-69
2022/01/28 10:59:38;;;;;;;;;39.33;32.33;;;;;10.01;72.14;103379.31;5037008;28;45260;-70
2022/01/28 11:02:05;;;;;;;;;46.67;38.33;;;;;10.00;72.91;103367.00;5036386;28;45496;-70
2022/01/28 11:04:31;;;;;;;;;44.00;35.67;;;;;9.93;73.57;103358.09;5036557;28;45468;-70
2022/01/28 11:06:58;;;;;;;;;43.33;35.00;;;;;10.00;73.50;103358.22;5037125;28;45619;-70
2022/01/28 11:09:25;;;;;;;;;47.00;35.67;;;;;9.93;73.26;103349.31;5036292;28;46352;-72
2022/01/28 11:11:51;;;;;;;;;47.00;36.67;;;;;9.78;73.89;103330.56;5036938;28;45508;-72
2022/01/28 11:14:18;;;;;;;;;45.00;35.00;;;;;9.69;75.17;103333.88;5035911;28;45587;-72
2022/01/28 11:16:44;;;;;;;;;44.33;38.67;;;;;9.65;74.99;103346.06;5037008;28;45461;-70
2022/01/28 11:19:13;;;;;;;;;49.67;39.33;;;;;9.56;75.68;103357.25;5035155;28;45464;-66
2022/01/28 11:21:47;;;;;;;;;43.33;36.00;;;;;9.46;75.95;103347.38;5036963;28;45399;-66
2022/01/28 11:24:28;;;;;;;;;44.67;38.33;;;;;9.31;76.66;103341.72;5036895;28;45525;-67
2022/01/28 11:27:32;;;;;;;;;43.00;36.00;;;;;9.28;77.61;103353.06;5036858;28;45522;-68
2022/01/28 11:30:19;;;;;;;;;47.67;38.00;;;;;9.28;78.42;103357.44;5036428;28;46252;-71
2022/01/28 11:33:11;;;;;;;;;40.33;34.67;;;;;9.28;77.78;103346.91;5036461;28;45480;-68
2022/01/28 11:35:49;;;;;;;;;46.67;40.00;;;;;9.24;78.28;103359.09;5060117;27;45447;-70
2022/01/28 11:38:24;;;;;;;;;44.67;36.00;;;;;9.21;78.39;103353.78;5099502;27;45426;-72
2022/01/28 11:40:56;;;;;;;;;47.67;38.00;;;;;9.18;79.58;103362.47;5099261;27;45313;-70
2022/01/28 11:43:26;;;;;;;;;47.00;38.00;;;;;9.18;79.40;103366.84;5099360;27;45337;-76
2022/01/28 11:46:26;;;;;;;;;50.00;39.33;;;;;9.19;79.70;103379.13;5099231;27;45391;-70
2022/01/28 11:48:52;;;;;;;;;50.33;39.00;;;;;9.23;80.55;103375.72;5099597;27;45443;-68
2022/01/28 11:51:22;;;;;;;;;44.67;37.33;;;;;9.26;79.68;103373.16;5099166;27;46643;-70
2022/01/28 11:53:57;;;;;;;;;46.00;39.67;;;;;9.30;80.31;103369.75;5099277;27;45355;-66
2022/01/28 11:56:26;;;;;;;;;48.33;38.33;;;;;9.35;80.67;103359.34;5099455;27;45337;-76
2022/01/28 11:58:58;;;;;;;;;52.67;40.00;;;;;9.37;80.43;103355.91;5099552;27;45420;-66
2022/01/28 12:01:45;;;;;;;;;45.00;37.33;;;;;9.48;80.32;103360.53;5099066;27;46215;-69
2022/01/28 12:04:30;;;;;;;;;50.67;38.33;;;;;9.54;80.01;103360.69;5097020;27;45352;-69
2022/01/28 12:07:09;;;;;;;;;48.33;40.33;;;;;9.58;80.49;103367.81;5098977;27;45298;-69
2022/01/28 12:09:38;;;;;;;;;44.33;33.00;;;;;9.59;79.92;103343.28;5098849;27;45474;-69
2022/01/28 12:12:08;;;;;;;;;40.00;35.00;;;;;9.67;79.64;103352.25;5099436;27;45308;-69
2022/01/28 12:14:54;;;;;;;;;45.67;33.33;;;;;9.72;79.77;103345.34;5119045;27;45301;-68
2022/01/28 12:17:36;;;;;;;;;39.67;35.33;;;;;9.76;79.38;103343.69;5119865;27;45399;-71
2022/01/28 12:20:13;;;;;;;;;48.33;36.00;;;;;9.79;79.53;103340.22;5119635;27;45701;-70
2022/01/28 12:23:01;;;;;;;;;48.33;36.33;;;;;9.84;79.71;103335.94;5119381;27;45420;-70
2022/01/28 12:25:35;;;;;;;;;45.67;38.33;;;;;9.90;79.49;103325.56;5118516;27;46756;-70
2022/01/28 12:28:20;;;;;;;;;46.33;36.67;;;;;9.88;78.96;103315.00;5121989;27;45505;-68
2022/01/28 12:30:58;;;;;;;;;40.00;33.33;;;;;9.92;79.26;103308.94;5128258;27;45317;-70
2022/01/28 12:33:26;;;;;;;;;52.00;40.00;;;;;9.91;79.06;103307.16;5118946;27;45533;-70
2022/01/28 12:35:55;;;;;;;;;64.67;47.00;;;;;9.95;78.89;103297.59;5098851;27;45517;-70
2022/01/28 12:38:24;;;;;;;;;39.00;32.33;;;;;9.94;78.92;103280.03;5101613;27;45451;-70
2022/01/28 12:40:52;;;;;;;;;32.67;27.67;;;;;9.81;78.96;103246.44;5117642;27;45457;-70
2022/01/28 12:43:20;;;;;;;;;34.00;23.67;;;;;10.04;77.76;103258.31;5118957;27;45375;-70
2022/01/28 12:46:02;;;;;;;;;29.33;28.33;;;;;10.07;77.66;103260.13;5118097;27;45454;-70
2022/01/28 12:48:28;;;;;;;;;25.00;22.33;;;;;10.13;77.31;103259.34;5117826;27;45464;-70
2022/01/28 12:50:55;;;;;;;;;22.33;19.67;;;;;10.11;76.10;103254.94;5118960;27;45357;-70
2022/01/28 12:53:32;;;;;;;;;24.33;20.00;;;;;10.08;75.84;103256.63;5118642;27;46269;-70
2022/01/28 12:55:59;;;;;;;;;33.00;26.00;;;;;9.96;76.05;103235.31;5098546;27;45339;-71